createdAt,value
2023-03-08T00:00:28.623Z,9.43
2023-03-08T00:03:34.812Z,7.68
2023-03-08T00:06:16.076Z,13.23
2023-03-08T00:08:49.481Z,6.07
2023-03-08T00:11:21.609Z,8.73
2023-03-08T00:13:55.100Z,5.78
2023-03-08T00:16:27.326Z,6.20
2023-03-08T00:19:01.298Z,14.43
2023-03-08T00:21:33.303Z,7.88
2023-03-08T00:24:05.661Z,7.88
2023-03-08T00:26:37.653Z,10.70
2023-03-08T00:29:09.775Z,5.90
2023-03-08T00:31:42.235Z,6.95
2023-03-08T00:34:14.348Z,5.75
2023-03-08T00:36:47.508Z,11.80
2023-03-08T00:39:19.731Z,8.10
2023-03-08T00:41:51.716Z,8.02
2023-03-08T00:44:23.820Z,9.35
2023-03-08T00:46:56.061Z,14.30
2023-03-08T00:49:30.394Z,12.75
2023-03-08T00:52:02.708Z,7.53
2023-03-08T00:54:35.158Z,7.97
2023-03-08T00:57:07.177Z,13.60
2023-03-08T00:59:39.216Z,8.13
2023-03-08T01:02:30.670Z,8.43
2023-03-08T01:05:02.651Z,7.10
2023-03-08T01:07:34.697Z,8.90
2023-03-08T01:10:07.186Z,8.85
2023-03-08T01:12:46.702Z,11.25
2023-03-08T01:15:18.961Z,14.10
2023-03-08T01:17:50.962Z,10.90
2023-03-08T01:20:23.109Z,9.85
2023-03-08T01:22:55.075Z,8.68
2023-03-08T01:25:38.268Z,14.35
2023-03-08T01:28:14.072Z,12.13
2023-03-08T01:30:46.198Z,4.60
2023-03-08T01:33:18.282Z,9.52
2023-03-08T01:35:50.544Z,17.13
2023-03-08T01:38:24.014Z,9.60
2023-03-08T01:40:58.735Z,7.28
2023-03-08T01:43:39.426Z,6.40
2023-03-08T01:49:30.720Z,9.52
2023-03-08T01:52:19.282Z,15.82
2023-03-08T01:54:59.023Z,5.55
2023-03-08T01:57:39.432Z,8.75
2023-03-08T02:00:15.337Z,8.55
2023-03-08T02:03:06.386Z,7.10
2023-03-08T02:05:43.666Z,9.25
2023-03-08T02:08:15.651Z,7.03
2023-03-08T02:10:49.297Z,9.18
2023-03-08T02:13:21.858Z,7.22
2023-03-08T02:15:56.866Z,8.38
2023-03-08T02:18:29.151Z,12.43
2023-03-08T02:21:01.740Z,9.63
2023-03-08T02:23:33.785Z,10.07
2023-03-08T02:26:06.065Z,10.50
2023-03-08T02:28:39.221Z,11.80
2023-03-08T02:31:13.307Z,9.00
2023-03-08T02:33:45.365Z,15.63
2023-03-08T02:36:17.505Z,14.65
2023-03-08T02:38:49.534Z,10.77
2023-03-08T02:44:12.583Z,22.42
2023-03-08T02:46:53.602Z,14.32
2023-03-08T02:49:25.576Z,10.93
2023-03-08T02:51:57.650Z,20.05
2023-03-08T02:54:29.704Z,12.98
2023-03-08T02:57:01.654Z,19.73
2023-03-08T02:59:35.478Z,14.35
2023-03-08T03:02:18.786Z,13.93
2023-03-08T03:04:51.137Z,22.23
2023-03-08T03:07:23.099Z,22.40
2023-03-08T03:09:55.138Z,16.50
2023-03-08T03:12:27.142Z,20.60
2023-03-08T03:14:59.175Z,18.30
2023-03-08T03:17:32.338Z,16.33
2023-03-08T03:20:08.302Z,18.52
2023-03-08T03:25:28.233Z,20.25
2023-03-08T03:28:00.274Z,18.58
2023-03-08T03:30:34.346Z,27.00
2023-03-08T03:33:06.427Z,19.05
2023-03-08T03:35:39.736Z,17.95
2023-03-08T03:38:13.454Z,23.85
2023-03-08T03:40:45.550Z,21.05
2023-03-08T03:43:19.073Z,17.92
2023-03-08T03:45:59.165Z,26.13
2023-03-08T03:48:31.523Z,24.05
2023-03-08T03:51:17.820Z,23.67
2023-03-08T03:53:50.595Z,21.50
2023-03-08T03:56:25.601Z,23.48
2023-03-08T03:58:57.670Z,21.45
2023-03-08T04:01:32.286Z,21.90
2023-03-08T04:04:04.505Z,26.42
2023-03-08T04:06:36.735Z,28.70
2023-03-08T04:09:15.449Z,24.98
2023-03-08T04:11:47.617Z,26.38
2023-03-08T04:14:19.736Z,24.38
2023-03-08T04:16:51.816Z,29.75
2023-03-08T04:19:26.913Z,24.15
2023-03-08T04:21:59.259Z,26.60
2023-03-08T04:24:31.384Z,32.13
2023-03-08T04:27:03.806Z,23.80
2023-03-08T04:29:35.814Z,28.83
2023-03-08T04:32:07.892Z,28.23
2023-03-08T04:34:40.009Z,34.13
2023-03-08T04:37:12.814Z,25.42
2023-03-08T04:39:44.841Z,22.35
2023-03-08T04:42:18.021Z,24.50
2023-03-08T04:44:51.953Z,20.25
2023-03-08T04:47:23.976Z,25.15
2023-03-08T04:49:55.982Z,26.75
2023-03-08T04:52:28.172Z,24.30
2023-03-08T04:55:00.311Z,23.95
2023-03-08T04:57:32.388Z,31.95
2023-03-08T05:00:06.024Z,30.95
2023-03-08T05:02:38.201Z,29.70
2023-03-08T05:05:10.264Z,24.50
2023-03-08T05:07:42.291Z,30.17
2023-03-08T05:10:14.299Z,27.05
2023-03-08T05:12:53.358Z,25.98
2023-03-08T05:15:25.670Z,25.58
2023-03-08T05:17:57.795Z,24.50
2023-03-08T05:21:01.158Z,26.35
2023-03-08T05:23:33.838Z,30.88
2023-03-08T05:26:21.856Z,28.10
2023-03-08T05:28:53.836Z,29.52
2023-03-08T05:31:25.910Z,30.65
2023-03-08T05:33:58.082Z,29.70
2023-03-08T05:36:30.060Z,28.95
2023-03-08T05:39:02.150Z,30.42
2023-03-08T05:41:34.146Z,29.95
2023-03-08T05:44:21.720Z,24.77
2023-03-08T05:46:54.037Z,30.75
2023-03-08T05:49:26.149Z,29.45
2023-03-08T05:51:58.125Z,29.08
2023-03-08T05:54:30.569Z,28.70
2023-03-08T05:57:02.659Z,30.55
2023-03-08T05:59:34.745Z,30.38
2023-03-08T06:02:06.703Z,34.40
2023-03-08T06:04:38.679Z,27.52
2023-03-08T06:10:12.909Z,37.17
2023-03-08T06:12:44.893Z,34.55
2023-03-08T06:15:17.176Z,31.70
2023-03-08T06:17:52.754Z,34.42
2023-03-08T06:20:25.046Z,30.67
2023-03-08T06:22:57.129Z,27.88
2023-03-08T06:25:29.127Z,28.08
2023-03-08T06:28:01.096Z,29.27
2023-03-08T06:30:33.209Z,28.02
2023-03-08T06:33:05.223Z,28.13
2023-03-08T06:35:38.414Z,27.45
2023-03-08T06:38:10.654Z,30.63
2023-03-08T06:41:11.720Z,29.52
2023-03-08T06:43:44.123Z,26.83
2023-03-08T06:46:18.908Z,38.67
2023-03-08T06:48:55.112Z,30.05
2023-03-08T06:51:27.387Z,26.75
2023-03-08T06:53:59.390Z,31.73
2023-03-08T06:56:31.397Z,28.27
2023-03-08T06:59:03.557Z,31.85
2023-03-08T07:01:35.695Z,32.40
2023-03-08T07:04:08.355Z,30.27
2023-03-08T07:06:40.562Z,27.73
2023-03-08T07:09:13.968Z,23.70
2023-03-08T07:11:45.980Z,30.48
2023-03-08T07:14:17.989Z,26.55
2023-03-08T07:16:49.967Z,30.40
2023-03-08T07:19:22.043Z,31.10
2023-03-08T07:21:54.105Z,29.58
2023-03-08T07:24:26.422Z,27.52
2023-03-08T07:26:58.479Z,28.20
2023-03-08T07:29:30.626Z,27.40
2023-03-08T07:32:02.810Z,26.52
2023-03-08T07:34:43.921Z,33.53
2023-03-08T07:37:16.989Z,36.90
2023-03-08T07:39:51.475Z,31.33
2023-03-08T07:42:23.549Z,37.88
2023-03-08T07:44:55.566Z,30.90
2023-03-08T07:47:30.412Z,28.50
2023-03-08T07:50:02.496Z,33.58
2023-03-08T07:52:34.575Z,35.05
2023-03-08T07:55:07.652Z,33.47
2023-03-08T07:57:39.684Z,33.60
2023-03-08T08:00:12.382Z,28.45
2023-03-08T08:02:44.433Z,33.03
2023-03-08T08:05:16.747Z,27.48
2023-03-08T08:07:49.336Z,31.17
2023-03-08T08:10:21.402Z,31.20
2023-03-08T08:12:53.500Z,27.00
2023-03-08T08:15:28.902Z,31.67
2023-03-08T08:18:01.402Z,24.70
2023-03-08T08:20:33.452Z,31.33
2023-03-08T08:23:06.830Z,23.80
2023-03-08T08:25:40.186Z,28.08
2023-03-08T08:28:12.155Z,25.20
2023-03-08T08:30:44.093Z,24.58
2023-03-08T08:33:16.079Z,29.42
2023-03-08T08:35:49.782Z,26.33
2023-03-08T08:38:22.393Z,25.48
2023-03-08T08:40:54.429Z,32.65
2023-03-08T08:43:26.903Z,31.30
2023-03-08T08:46:00.913Z,29.08
2023-03-08T08:48:38.478Z,33.47
2023-03-08T08:51:13.765Z,35.55
2023-03-08T08:53:45.816Z,28.70
2023-03-08T08:56:27.557Z,29.65
2023-03-08T08:59:02.507Z,26.88
2023-03-08T09:01:35.823Z,25.98
2023-03-08T09:04:07.905Z,25.05
2023-03-08T09:06:40.387Z,28.08
2023-03-08T09:09:12.393Z,22.77
2023-03-08T09:11:54.201Z,26.58
2023-03-08T09:14:26.661Z,27.88
2023-03-08T09:16:58.940Z,26.05
2023-03-08T09:19:31.234Z,23.70
2023-03-08T09:22:03.608Z,25.92
2023-03-08T09:24:35.850Z,20.05
2023-03-08T09:27:08.057Z,26.80
2023-03-08T09:29:40.189Z,22.73
2023-03-08T09:32:12.359Z,26.25
2023-03-08T09:34:48.999Z,24.48
2023-03-08T09:37:21.526Z,26.50
2023-03-08T09:39:54.432Z,23.27
2023-03-08T09:42:38.365Z,23.42
2023-03-08T09:45:28.396Z,23.65
2023-03-08T09:48:18.291Z,27.67
2023-03-08T09:50:57.951Z,30.23
2023-03-08T09:53:38.489Z,26.17
2023-03-08T09:56:31.494Z,22.33
2023-03-08T09:59:14.166Z,25.88
2023-03-08T10:02:03.359Z,23.73
2023-03-08T10:05:31.883Z,23.17
2023-03-08T10:08:17.770Z,22.40
2023-03-08T10:11:04.334Z,24.77
2023-03-08T10:13:48.270Z,25.00
2023-03-08T10:16:28.811Z,23.10
2023-03-08T10:19:40.488Z,24.08
2023-03-08T10:22:34.389Z,17.35
2023-03-08T10:25:31.715Z,19.98
2023-03-08T10:28:18.403Z,18.88
2023-03-08T10:31:26.343Z,16.02
2023-03-08T10:34:21.621Z,23.58
2023-03-08T10:37:02.762Z,21.00
2023-03-08T10:39:37.332Z,19.92
2023-03-08T10:42:16.962Z,18.45
2023-03-08T10:45:22.161Z,24.95
2023-03-08T10:48:06.044Z,22.23
2023-03-08T10:50:38.281Z,21.02
2023-03-08T10:53:20.997Z,20.02
2023-03-08T10:55:53.387Z,23.73
2023-03-08T10:58:38.198Z,19.20
2023-03-08T11:01:28.113Z,18.42
2023-03-08T11:04:23.560Z,20.92
2023-03-08T11:06:55.971Z,29.90
2023-03-08T11:09:33.577Z,31.92
2023-03-08T11:12:05.763Z,27.02
2023-03-08T11:14:38.098Z,35.58
2023-03-08T11:21:44.708Z,39.97
2023-03-08T11:24:53.117Z,38.90
2023-03-08T11:27:43.107Z,46.88
2023-03-08T11:30:58.946Z,38.22
2023-03-08T11:33:53.393Z,41.50
2023-03-08T11:36:43.016Z,42.15
2023-03-08T11:39:24.339Z,41.08
2023-03-08T11:42:07.438Z,43.38
2023-03-08T11:45:22.129Z,35.45
2023-03-08T11:48:35.510Z,31.25
2023-03-08T11:51:15.375Z,28.00
2023-03-08T11:53:56.358Z,27.33
2023-03-08T11:56:47.232Z,24.92
2023-03-08T11:59:36.313Z,23.90
2023-03-08T12:02:08.290Z,20.98
2023-03-08T12:05:02.042Z,19.92
2023-03-08T12:07:44.925Z,23.35
2023-03-08T12:10:50.010Z,25.27
2023-03-08T12:13:46.847Z,17.00
2023-03-08T12:16:35.218Z,23.30
2023-03-08T12:19:46.176Z,18.20
2023-03-08T12:22:46.351Z,18.75
2023-03-08T12:25:33.309Z,15.98
2023-03-08T12:29:00.520Z,16.10
2023-03-08T12:31:54.340Z,17.17
2023-03-08T12:34:39.831Z,14.73
2023-03-08T12:37:28.087Z,16.33
2023-03-08T12:40:10.876Z,15.68
2023-03-08T12:42:43.062Z,20.02
2023-03-08T12:45:41.256Z,13.90
2023-03-08T12:48:23.886Z,14.35
2023-03-08T12:51:03.556Z,17.38
2023-03-08T12:53:50.805Z,16.75
2023-03-08T12:56:51.258Z,14.25
2023-03-08T12:59:35.874Z,11.85
2023-03-08T13:02:30.741Z,14.48
2023-03-08T13:05:19.866Z,14.05
2023-03-08T13:08:13.684Z,17.98
2023-03-08T13:11:13.403Z,13.95
2023-03-08T13:14:51.546Z,12.05
2023-03-08T13:17:35.941Z,14.30
2023-03-08T13:20:30.184Z,13.57
2023-03-08T13:23:13.998Z,11.02
2023-03-08T13:26:51.032Z,10.77
2023-03-08T13:29:30.132Z,13.68
2023-03-08T13:32:12.509Z,15.23
2023-03-08T13:34:47.769Z,12.65
2023-03-08T13:37:31.396Z,14.13
2023-03-08T13:40:09.704Z,15.07
2023-03-08T13:42:58.746Z,13.98
2023-03-08T13:45:31.227Z,14.60
2023-03-08T13:48:09.251Z,13.90
2023-03-08T13:50:51.248Z,13.50
2023-03-08T13:53:30.481Z,11.80
2023-03-08T13:56:06.124Z,10.95
2023-03-08T13:59:22.886Z,15.73
2023-03-08T14:01:56.121Z,9.45
2023-03-08T14:04:31.101Z,9.45
2023-03-08T14:07:05.262Z,8.07
2023-03-08T14:09:38.373Z,8.35
2023-03-08T14:12:17.572Z,8.80
2023-03-08T14:14:57.368Z,6.72
2023-03-08T14:17:32.558Z,9.57
2023-03-08T14:20:19.206Z,9.20
2023-03-08T14:22:53.863Z,13.48
2023-03-08T14:25:31.483Z,10.65
2023-03-08T14:28:11.476Z,7.75
2023-03-08T14:33:28.302Z,12.43
2023-03-08T14:36:06.179Z,10.98
2023-03-08T14:38:38.885Z,13.60
2023-03-08T14:41:15.512Z,12.43
2023-03-08T14:43:49.609Z,9.23
2023-03-08T14:46:24.010Z,9.82
2023-03-08T14:49:05.303Z,11.10
2023-03-08T14:51:42.306Z,9.45
2023-03-08T14:54:36.917Z,15.68
2023-03-08T14:57:24.575Z,14.23
2023-03-08T15:00:14.090Z,15.75
2023-03-08T15:02:46.190Z,15.25
2023-03-08T15:05:29.166Z,13.57
2023-03-08T15:08:01.840Z,14.20
2023-03-08T15:10:37.445Z,13.95
2023-03-08T15:13:19.419Z,20.75
2023-03-08T15:15:51.612Z,16.05
2023-03-08T15:18:23.920Z,17.58
2023-03-08T15:20:56.823Z,16.38
2023-03-08T15:23:32.663Z,18.83
2023-03-08T15:26:06.770Z,14.48
2023-03-08T15:29:15.442Z,14.02
2023-03-08T15:31:47.466Z,16.83
2023-03-08T15:34:20.266Z,16.65
2023-03-08T15:36:53.912Z,22.52
2023-03-08T15:42:48.900Z,18.08
2023-03-08T15:45:21.554Z,25.20
2023-03-08T15:48:03.005Z,13.60
2023-03-08T15:50:36.228Z,18.02
2023-03-08T15:53:09.423Z,15.32
2023-03-08T15:55:41.781Z,14.55
2023-03-08T15:58:13.830Z,11.80
2023-03-08T16:00:45.938Z,15.50
2023-03-08T16:03:26.114Z,17.55
2023-03-08T16:08:33.266Z,21.67
2023-03-08T16:11:10.229Z,19.13
2023-03-08T16:13:42.785Z,11.35
2023-03-08T16:16:14.955Z,13.30
2023-03-08T16:18:47.156Z,11.27
2023-03-08T16:21:27.560Z,13.32
2023-03-08T16:24:02.492Z,22.52
2023-03-08T16:26:34.477Z,12.88
2023-03-08T16:29:06.568Z,14.73
2023-03-08T16:31:38.832Z,15.02
2023-03-08T16:34:12.309Z,12.68
2023-03-08T16:36:44.705Z,13.82
2023-03-08T16:39:16.739Z,9.10
2023-03-08T16:41:49.649Z,12.88
2023-03-08T16:44:27.959Z,14.57
2023-03-08T16:47:00.136Z,16.15
2023-03-08T16:49:32.198Z,15.07
2023-03-08T16:52:05.677Z,12.27
2023-03-08T16:54:37.974Z,12.43
2023-03-08T16:57:19.456Z,17.25
2023-03-08T16:59:51.801Z,11.63
2023-03-08T17:02:24.088Z,13.45
2023-03-08T17:04:56.287Z,15.18
2023-03-08T17:07:28.429Z,11.38
2023-03-08T17:10:01.372Z,17.67
2023-03-08T17:12:33.439Z,12.77
2023-03-08T17:15:06.268Z,13.63
2023-03-08T17:17:41.545Z,21.13
2023-03-08T17:20:32.747Z,22.70
2023-03-08T17:23:05.067Z,18.73
2023-03-08T17:25:41.084Z,28.42
2023-03-08T17:28:14.029Z,15.18
2023-03-08T17:30:46.095Z,15.70
2023-03-08T17:33:18.221Z,16.75
2023-03-08T17:35:57.004Z,17.42
2023-03-08T17:38:29.712Z,17.25
2023-03-08T17:41:13.063Z,18.70
2023-03-08T17:43:45.244Z,14.68
2023-03-08T17:46:24.111Z,17.25
2023-03-08T17:48:56.758Z,20.67
2023-03-08T17:51:31.559Z,17.20
2023-03-08T17:54:08.950Z,15.25
2023-03-08T17:56:42.028Z,20.80
2023-03-08T17:59:16.777Z,22.45
2023-03-08T18:01:48.823Z,25.45
2023-03-08T18:04:22.213Z,31.15
2023-03-08T18:06:54.295Z,28.15
2023-03-08T18:09:28.388Z,30.88
2023-03-08T18:12:00.457Z,32.88
2023-03-08T18:14:40.071Z,28.48
2023-03-08T18:17:12.658Z,38.08
2023-03-08T18:19:44.849Z,28.17
2023-03-08T18:22:17.956Z,26.17
2023-03-08T18:24:49.966Z,28.20
2023-03-08T18:27:22.010Z,26.38
2023-03-08T18:29:57.489Z,25.45
2023-03-08T18:32:30.310Z,26.98
2023-03-08T18:35:02.420Z,26.38
2023-03-08T18:37:35.586Z,27.60
2023-03-08T18:40:12.101Z,23.77
2023-03-08T18:42:48.865Z,27.27
2023-03-08T18:45:21.285Z,23.67
2023-03-08T18:47:53.940Z,25.02
2023-03-08T18:50:26.094Z,25.38
2023-03-08T18:52:58.267Z,41.63
2023-03-08T18:55:33.114Z,27.08
2023-03-08T18:58:05.390Z,26.63
2023-03-08T19:00:37.495Z,22.70
2023-03-08T19:03:19.367Z,27.95
2023-03-08T19:05:51.967Z,27.45
2023-03-08T19:08:25.595Z,24.42
2023-03-08T19:10:59.068Z,32.75
2023-03-08T19:13:31.110Z,25.63
2023-03-08T19:16:03.236Z,28.83
2023-03-08T19:18:35.211Z,28.60
2023-03-08T19:21:07.205Z,28.75
2023-03-08T19:23:39.237Z,24.67
2023-03-08T19:26:32.730Z,28.35
2023-03-08T19:29:10.681Z,25.42
2023-03-08T19:31:51.189Z,24.63
2023-03-08T19:34:34.583Z,21.33
2023-03-08T19:37:07.401Z,21.88
2023-03-08T19:39:41.046Z,19.67
2023-03-08T19:42:16.200Z,21.10
2023-03-08T19:44:52.778Z,24.20
2023-03-08T19:47:24.912Z,25.73
2023-03-08T19:49:57.382Z,25.80
2023-03-08T19:52:29.642Z,32.55
2023-03-08T19:55:02.307Z,25.52
2023-03-08T19:57:34.570Z,24.60
2023-03-08T20:00:07.462Z,20.65
2023-03-08T20:02:46.345Z,23.08
2023-03-08T20:05:18.784Z,19.05
2023-03-08T20:07:50.820Z,19.90
2023-03-08T20:10:23.119Z,21.15
2023-03-08T20:12:57.963Z,20.80
2023-03-08T20:15:30.271Z,17.63
2023-03-08T20:18:02.325Z,21.02
2023-03-08T20:20:37.074Z,19.27
2023-03-08T20:23:11.224Z,20.63
2023-03-08T20:25:45.101Z,19.13
2023-03-08T20:28:18.345Z,20.73
2023-03-08T20:30:50.923Z,17.17
2023-03-08T20:33:23.114Z,19.20
2023-03-08T20:36:05.941Z,16.50
2023-03-08T20:38:38.923Z,20.80
2023-03-08T20:41:18.073Z,19.20
2023-03-08T20:43:52.331Z,17.50
2023-03-08T20:46:29.658Z,18.15
2023-03-08T20:49:02.087Z,17.20
2023-03-08T20:51:34.205Z,17.52
2023-03-08T20:54:06.395Z,19.13
2023-03-08T20:56:38.594Z,19.50
2023-03-08T20:59:14.636Z,16.25
2023-03-08T21:01:48.653Z,21.00
2023-03-08T21:04:21.563Z,18.60
2023-03-08T21:06:55.128Z,18.35
2023-03-08T21:09:27.192Z,23.30
2023-03-08T21:11:59.482Z,16.65
2023-03-08T21:14:31.668Z,18.50
2023-03-08T21:17:03.768Z,21.80
2023-03-08T21:19:35.872Z,26.50
2023-03-08T21:22:07.892Z,22.38
2023-03-08T21:24:40.134Z,22.65
2023-03-08T21:27:12.441Z,22.13
2023-03-08T21:29:44.681Z,24.25
2023-03-08T21:32:16.735Z,21.27
2023-03-08T21:34:48.791Z,24.25
2023-03-08T21:37:20.827Z,24.67
2023-03-08T21:39:55.186Z,23.08
2023-03-08T21:42:27.560Z,32.92
2023-03-08T21:45:02.937Z,25.10
2023-03-08T21:47:34.992Z,29.23
2023-03-08T21:50:09.922Z,26.30
2023-03-08T21:52:43.967Z,23.05
2023-03-08T21:55:16.143Z,27.15
2023-03-08T21:58:21.839Z,26.30
2023-03-08T22:00:54.499Z,30.10
2023-03-08T22:03:29.872Z,28.77
2023-03-08T22:06:02.045Z,33.35
2023-03-08T22:08:34.225Z,29.60
2023-03-08T22:11:07.548Z,28.10
2023-03-08T22:13:39.716Z,29.42
2023-03-08T22:16:11.770Z,28.67
2023-03-08T22:18:43.808Z,26.70
2023-03-08T22:21:15.794Z,26.02
2023-03-08T22:23:52.737Z,30.48
2023-03-08T22:26:26.628Z,29.27
2023-03-08T22:28:59.464Z,28.70
2023-03-08T22:31:31.668Z,26.08
2023-03-08T22:34:04.296Z,30.42
2023-03-08T22:36:36.490Z,29.15
2023-03-08T22:39:08.499Z,29.17
2023-03-08T22:41:42.072Z,32.83
2023-03-08T22:44:15.942Z,29.50
2023-03-08T22:46:48.194Z,28.83
2023-03-08T22:49:20.293Z,29.95
2023-03-08T22:51:54.916Z,30.55
2023-03-08T22:54:26.920Z,25.00
2023-03-08T22:56:59.424Z,25.58
2023-03-08T22:59:38.384Z,26.75
2023-03-08T23:02:10.374Z,26.70
2023-03-08T23:04:42.511Z,25.60
2023-03-08T23:07:14.669Z,27.98
2023-03-08T23:09:46.611Z,26.38
2023-03-08T23:12:18.912Z,30.98
2023-03-08T23:14:50.932Z,29.38
2023-03-08T23:17:22.989Z,29.88
2023-03-08T23:19:55.036Z,28.05
2023-03-08T23:22:27.352Z,32.28
2023-03-08T23:24:59.305Z,28.63
2023-03-08T23:27:33.227Z,24.05
2023-03-08T23:30:07.541Z,29.73
2023-03-08T23:32:42.698Z,31.92
2023-03-08T23:35:14.756Z,31.00
2023-03-08T23:37:47.201Z,37.90
2023-03-08T23:40:19.320Z,34.35
2023-03-08T23:42:51.341Z,33.20
2023-03-08T23:45:23.451Z,29.25
2023-03-08T23:47:55.470Z,30.10
2023-03-08T23:50:27.456Z,27.92
2023-03-08T23:52:59.528Z,28.73
2023-03-08T23:55:43.291Z,33.40
2023-03-08T23:58:15.304Z,27.70
